Time;durP1;ratioP1;P1;durP2;ratioP2;P2;SDS_P1;SDS_P2;PMS_P1;PMS_P2;Temp;Humidity;BMP_temperature;BMP_pressure;BME280_temperature;BME280_humidity;BME280_pressure;Samples;Min_cycle;Max_cycle;Signal;HPM_P1;HPM_P2
2023/10/23 00:01:38;;;;;;;8.10;5.80;;;;;;;;;;5048579;28;20052;-63
2023/10/23 00:04:04;;;;;;;5.85;5.10;;;;;;;;;;5049067;28;20033;-63
2023/10/23 00:06:30;;;;;;;6.55;5.72;;;;;;;;;;5049254;28;20129;-63
2023/10/23 00:08:56;;;;;;;7.53;5.57;;;;;;;;;;5049087;28;20116;-63
2023/10/23 00:11:23;;;;;;;8.98;5.82;;;;;;;;;;5049284;28;20029;-63
2023/10/23 00:13:49;;;;;;;6.50;5.80;;;;;;;;;;5049310;28;20045;-63
2023/10/23 00:16:15;;;;;;;8.23;5.10;;;;;;;;;;5048926;28;20095;-63
2023/10/23 00:18:41;;;;;;;8.40;5.35;;;;;;;;;;5048972;28;20391;-63
2023/10/23 00:21:08;;;;;;;9.57;6.00;;;;;;;;;;5048975;28;20056;-63
2023/10/23 00:23:34;;;;;;;5.60;5.00;;;;;;;;;;5048615;28;20090;-63
2023/10/23 00:26:00;;;;;;;8.75;5.68;;;;;;;;;;5048713;28;20048;-63
2023/10/23 00:28:26;;;;;;;7.32;5.57;;;;;;;;;;5048988;28;20045;-63
2023/10/23 00:30:52;;;;;;;7.57;5.43;;;;;;;;;;5048593;28;20422;-63
2023/10/23 00:33:18;;;;;;;7.07;5.35;;;;;;;;;;5048624;28;20044;-63
2023/10/23 00:35:44;;;;;;;6.97;5.97;;;;;;;;;;5048883;28;20044;-63
2023/10/23 00:38:10;;;;;;;6.53;5.50;;;;;;;;;;5048289;28;20072;-63
2023/10/23 00:40:36;;;;;;;7.15;5.53;;;;;;;;;;5048845;28;20045;-63
2023/10/23 00:43:12;;;;;;;7.25;5.68;;;;;;;;;;5049108;28;20047;-63
2023/10/23 00:45:43;;;;;;;6.28;4.97;;;;;;;;;;5048145;28;20250;-63
2023/10/23 00:48:09;;;;;;;7.47;5.70;;;;;;;;;;5048525;28;20048;-63
2023/10/23 00:50:35;;;;;;;9.82;5.75;;;;;;;;;;5048785;28;20041;-63
2023/10/23 00:53:01;;;;;;;7.50;5.72;;;;;;;;;;5048139;28;20145;-63
2023/10/23 00:55:27;;;;;;;7.13;6.00;;;;;;;;;;5048529;28;20076;-63
2023/10/23 00:57:53;;;;;;;9.25;5.60;;;;;;;;;;5048851;28;20052;-63
2023/10/23 01:00:19;;;;;;;7.38;5.57;;;;;;;;;;5048578;28;20040;-63
2023/10/23 01:02:45;;;;;;;6.47;5.57;;;;;;;;;;5048735;28;20091;-63
2023/10/23 01:05:11;;;;;;;6.35;5.38;;;;;;;;;;5030932;28;20483;-63
2023/10/23 01:07:37;;;;;;;6.13;5.30;;;;;;;;;;5048554;28;20064;-63
2023/10/23 01:10:03;;;;;;;6.13;5.53;;;;;;;;;;5048359;28;20127;-63
2023/10/23 01:12:29;;;;;;;9.15;5.45;;;;;;;;;;5032412;28;20169;-63
2023/10/23 01:14:55;;;;;;;8.00;5.78;;;;;;;;;;5052623;28;20069;-63
2023/10/23 01:17:21;;;;;;;8.02;5.72;;;;;;;;;;5052929;28;20495;-63
2023/10/23 01:19:47;;;;;;;10.32;5.75;;;;;;;;;;5052897;28;20079;-63
2023/10/23 01:22:13;;;;;;;6.55;5.45;;;;;;;;;;5052615;28;20051;-63
2023/10/23 01:24:41;;;;;;;7.90;5.80;;;;;;;;;;5052776;28;20040;-63
2023/10/23 01:27:07;;;;;;;8.20;5.40;;;;;;;;;;5052253;28;20048;-63
2023/10/23 01:29:33;;;;;;;7.35;5.88;;;;;;;;;;5052049;28;20411;-63
2023/10/23 01:31:59;;;;;;;7.68;5.38;;;;;;;;;;5052440;28;20041;-63
2023/10/23 01:34:25;;;;;;;7.78;5.15;;;;;;;;;;5034752;28;20069;-63
2023/10/23 01:36:51;;;;;;;7.25;5.47;;;;;;;;;;5052113;28;20045;-63
2023/10/23 01:39:17;;;;;;;6.18;5.28;;;;;;;;;;5052321;28;20501;-63
2023/10/23 01:41:43;;;;;;;6.53;5.43;;;;;;;;;;5052375;28;20045;-63
2023/10/23 01:44:09;;;;;;;6.57;5.88;;;;;;;;;;5052005;28;20045;-63
2023/10/23 01:46:35;;;;;;;7.85;5.43;;;;;;;;;;5052209;28;20507;-63
2023/10/23 01:49:01;;;;;;;7.57;5.68;;;;;;;;;;5052414;28;20124;-63
2023/10/23 01:51:27;;;;;;;6.10;5.15;;;;;;;;;;5051658;28;20033;-63
2023/10/23 01:53:54;;;;;;;10.10;5.43;;;;;;;;;;5052176;28;20098;-63
2023/10/23 01:56:20;;;;;;;8.23;5.57;;;;;;;;;;5052281;28;20045;-63
2023/10/23 01:58:46;;;;;;;5.82;5.22;;;;;;;;;;5033592;28;20052;-63
2023/10/23 02:01:22;;;;;;;5.93;5.28;;;;;;;;;;5052158;28;20279;-63
2023/10/23 02:03:49;;;;;;;8.10;5.35;;;;;;;;;;5052118;28;20422;-63
2023/10/23 02:06:15;;;;;;;6.20;4.82;;;;;;;;;;5051587;28;20052;-63
2023/10/23 02:08:41;;;;;;;5.80;5.28;;;;;;;;;;5051698;28;20415;-63
2023/10/23 02:11:08;;;;;;;7.57;5.47;;;;;;;;;;5051787;28;20079;-63
2023/10/23 02:13:34;;;;;;;6.55;4.90;;;;;;;;;;5051310;28;20037;-63
2023/10/23 02:16:00;;;;;;;7.50;5.15;;;;;;;;;;5033737;28;20172;-63
2023/10/23 02:18:26;;;;;;;8.82;5.28;;;;;;;;;;5051875;28;20463;-63
2023/10/23 02:20:52;;;;;;;5.47;4.93;;;;;;;;;;5051387;28;20045;-63
2023/10/23 02:23:18;;;;;;;6.20;5.25;;;;;;;;;;5051420;28;20045;-63
2023/10/23 02:25:44;;;;;;;5.55;5.05;;;;;;;;;;5033430;28;20657;-63
2023/10/23 02:28:10;;;;;;;6.22;4.78;;;;;;;;;;5051175;28;20128;-63
2023/10/23 02:30:36;;;;;;;6.53;5.22;;;;;;;;;;5051503;28;20041;-63
2023/10/23 02:33:02;;;;;;;5.68;5.05;;;;;;;;;;5051600;28;20044;-63
2023/10/23 02:35:28;;;;;;;5.93;4.53;;;;;;;;;;5051359;28;20033;-63
2023/10/23 02:37:54;;;;;;;4.55;4.00;;;;;;;;;;5051404;28;20067;-63
2023/10/23 02:40:21;;;;;;;7.72;4.40;;;;;;;;;;5051213;28;20099;-63
2023/10/23 02:42:47;;;;;;;4.53;4.13;;;;;;;;;;5051054;28;20423;-63
2023/10/23 02:45:13;;;;;;;4.53;4.13;;;;;;;;;;5051104;28;20089;-63
2023/10/23 02:47:39;;;;;;;4.53;3.78;;;;;;;;;;5051140;28;20483;-63
2023/10/23 02:50:07;;;;;;;5.00;4.20;;;;;;;;;;5051180;28;20037;-63
2023/10/23 02:52:33;;;;;;;4.95;3.78;;;;;;;;;;5051111;28;20076;-63
2023/10/23 02:54:59;;;;;;;4.40;3.90;;;;;;;;;;5050963;28;20091;-63
2023/10/23 02:57:25;;;;;;;4.07;3.67;;;;;;;;;;5050779;28;20041;-63
2023/10/23 02:59:51;;;;;;;5.05;3.47;;;;;;;;;;5050881;28;20045;-63
2023/10/23 03:02:17;;;;;;;4.28;3.03;;;;;;;;;;5051059;28;20103;-63
2023/10/23 03:04:43;;;;;;;3.90;2.85;;;;;;;;;;5050586;28;20045;-63
2023/10/23 03:07:09;;;;;;;3.03;2.70;;;;;;;;;;5050796;28;20040;-63
2023/10/23 03:09:36;;;;;;;3.40;2.92;;;;;;;;;;5051001;28;20040;-63
2023/10/23 03:12:02;;;;;;;2.50;2.30;;;;;;;;;;5050555;28;20565;-63
2023/10/23 03:14:28;;;;;;;3.97;2.60;;;;;;;;;;5050816;28;20044;-63
2023/10/23 03:16:54;;;;;;;4.13;2.33;;;;;;;;;;5050455;28;20044;-63
2023/10/23 03:19:24;;;;;;;3.08;2.78;;;;;;;;;;5049989;28;20040;-63
2023/10/23 03:21:50;;;;;;;3.20;2.90;;;;;;;;;;5050314;28;20132;-63
2023/10/23 03:24:16;;;;;;;4.88;2.45;;;;;;;;;;5050238;28;20120;-63
2023/10/23 03:26:42;;;;;;;2.50;2.30;;;;;;;;;;5049651;28;20087;-63
2023/10/23 03:29:08;;;;;;;6.05;2.40;;;;;;;;;;5050341;28;20495;-63
2023/10/23 03:31:34;;;;;;;2.80;2.60;;;;;;;;;;5050423;28;20069;-63
2023/10/23 03:34:00;;;;;;;2.33;2.13;;;;;;;;;;5049498;28;20063;-63
2023/10/23 03:36:26;;;;;;;2.33;2.13;;;;;;;;;;5049627;28;20048;-63
2023/10/23 03:38:54;;;;;;;5.05;2.20;;;;;;;;;;5049913;28;20044;-63
2023/10/23 03:41:20;;;;;;;2.78;2.47;;;;;;;;;;5031522;28;20052;-63
2023/10/23 03:43:46;;;;;;;2.80;2.60;;;;;;;;;;5049976;28;20044;-63
2023/10/23 03:46:12;;;;;;;4.82;3.10;;;;;;;;;;5049943;28;20041;-63
2023/10/23 03:48:38;;;;;;;5.00;2.78;;;;;;;;;;5049692;28;20527;-63
2023/10/23 03:51:04;;;;;;;4.78;3.50;;;;;;;;;;5049856;28;20572;-63
2023/10/23 03:53:30;;;;;;;5.57;4.40;;;;;;;;;;5049485;28;20121;-63
2023/10/23 03:55:57;;;;;;;6.38;4.05;;;;;;;;;;5049993;28;20044;-63
2023/10/23 03:58:23;;;;;;;5.05;4.53;;;;;;;;;;5049180;28;20053;-63
2023/10/23 04:00:53;;;;;;;5.05;4.55;;;;;;;;;;5049597;28;20064;-63
2023/10/23 04:03:19;;;;;;;5.30;4.80;;;;;;;;;;5049588;28;20519;-63
2023/10/23 04:05:45;;;;;;;5.78;5.28;;;;;;;;;;5049182;28;20040;-63
2023/10/23 04:08:11;;;;;;;5.75;4.95;;;;;;;;;;5049737;28;20457;-63
2023/10/23 04:10:36;;;;;;;6.68;4.53;;;;;;;;;;5049351;28;20037;-63
2023/10/23 04:13:02;;;;;;;4.75;4.35;;;;;;;;;;5031227;28;20036;-63
2023/10/23 04:15:28;;;;;;;5.22;4.63;;;;;;;;;;5049325;28;20124;-63
2023/10/23 04:17:54;;;;;;;6.88;4.90;;;;;;;;;;5049208;28;20129;-63
2023/10/23 04:20:20;;;;;;;6.28;5.07;;;;;;;;;;5048847;28;20040;-63
2023/10/23 04:22:46;;;;;;;5.68;5.18;;;;;;;;;;5049151;28;20539;-63
2023/10/23 04:25:12;;;;;;;5.68;4.70;;;;;;;;;;5049017;28;20040;-63
2023/10/23 04:27:38;;;;;;;5.97;4.90;;;;;;;;;;5049607;28;20046;-63
2023/10/23 04:30:05;;;;;;;5.72;4.85;;;;;;;;;;5050761;28;20041;-63
2023/10/23 04:32:31;;;;;;;5.93;5.32;;;;;;;;;;5050543;28;20430;-63
2023/10/23 04:34:57;;;;;;;6.18;4.38;;;;;;;;;;5050536;28;20080;-63
2023/10/23 04:37:23;;;;;;;4.90;4.40;;;;;;;;;;5050731;28;20455;-63
2023/10/23 04:39:49;;;;;;;5.40;4.78;;;;;;;;;;5050220;28;20039;-63
2023/10/23 04:42:15;;;;;;;5.05;4.35;;;;;;;;;;5049915;28;20429;-63
2023/10/23 04:44:41;;;;;;;5.18;4.65;;;;;;;;;;5050731;28;20033;-63
2023/10/23 04:47:07;;;;;;;5.45;4.80;;;;;;;;;;5050013;28;20128;-63
2023/10/23 04:49:33;;;;;;;5.20;4.20;;;;;;;;;;5049654;28;20041;-63
2023/10/23 04:51:59;;;;;;;5.00;4.35;;;;;;;;;;5050319;28;20041;-63
2023/10/23 04:54:25;;;;;;;5.15;4.65;;;;;;;;;;5049958;28;20045;-63
2023/10/23 04:56:51;;;;;;;5.13;4.40;;;;;;;;;;5050062;28;20466;-63
2023/10/23 04:59:17;;;;;;;5.60;4.88;;;;;;;;;;5050259;28;20049;-63
2023/10/23 05:01:43;;;;;;;6.10;4.65;;;;;;;;;;5050542;28;20418;-63
2023/10/23 05:04:09;;;;;;;6.15;5.43;;;;;;;;;;5032264;28;20037;-63
2023/10/23 05:06:36;;;;;;;6.22;4.90;;;;;;;;;;5050378;28;20045;-63
2023/10/23 05:09:02;;;;;;;5.30;4.55;;;;;;;;;;5050366;28;20048;-63
2023/10/23 05:11:29;;;;;;;6.18;4.63;;;;;;;;;;5050137;28;20049;-63
2023/10/23 05:13:55;;;;;;;4.68;4.15;;;;;;;;;;5050514;28;20120;-63
2023/10/23 05:16:21;;;;;;;5.00;4.32;;;;;;;;;;5050291;28;20119;-63
2023/10/23 05:18:47;;;;;;;4.88;4.05;;;;;;;;;;5049391;28;20045;-63
2023/10/23 05:21:13;;;;;;;4.50;4.10;;;;;;;;;;5050261;28;20415;-63
2023/10/23 05:23:40;;;;;;;6.07;4.55;;;;;;;;;;5050277;28;20037;-63
2023/10/23 05:26:07;;;;;;;4.03;3.70;;;;;;;;;;5049627;28;20037;-63
2023/10/23 05:28:33;;;;;;;4.82;4.32;;;;;;;;;;5050161;28;20057;-63
2023/10/23 05:30:59;;;;;;;6.95;4.20;;;;;;;;;;5050085;28;20505;-63
2023/10/23 05:33:25;;;;;;;5.50;4.68;;;;;;;;;;5049962;28;20056;-63
2023/10/23 05:36:00;;;;;;;5.68;4.18;;;;;;;;;;5049696;28;20041;-63
2023/10/23 05:38:26;;;;;;;6.53;4.35;;;;;;;;;;5050105;28;20048;-63
2023/10/23 05:40:56;;;;;;;4.78;4.30;;;;;;;;;;5049574;28;20441;-63
2023/10/23 05:43:22;;;;;;;4.63;4.13;;;;;;;;;;5049856;28;20076;-63
2023/10/23 05:45:49;;;;;;;5.47;4.45;;;;;;;;;;5049734;28;20098;-63
2023/10/23 05:48:15;;;;;;;5.15;4.25;;;;;;;;;;5049501;28;20041;-63
2023/10/23 05:50:41;;;;;;;5.70;4.25;;;;;;;;;;5049585;28;20036;-63
2023/10/23 05:53:07;;;;;;;5.05;4.35;;;;;;;;;;5049985;28;20049;-63
2023/10/23 05:55:37;;;;;;;5.68;5.07;;;;;;;;;;5049555;28;20048;-62
2023/10/23 05:58:03;;;;;;;7.15;4.40;;;;;;;;;;5050722;28;20091;-62
2023/10/23 06:00:29;;;;;;;6.97;4.95;;;;;;;;;;5053483;28;20041;-62
2023/10/23 06:02:55;;;;;;;5.28;4.70;;;;;;;;;;5053114;28;20813;-62
2023/10/23 06:05:21;;;;;;;6.32;5.50;;;;;;;;;;5053378;28;20067;-62
2023/10/23 06:07:47;;;;;;;5.85;4.82;;;;;;;;;;5053363;28;20053;-62
2023/10/23 06:10:13;;;;;;;5.43;4.47;;;;;;;;;;5053031;28;20041;-62
2023/10/23 06:12:39;;;;;;;4.40;4.00;;;;;;;;;;5053347;28;20415;-62
2023/10/23 06:15:05;;;;;;;5.20;4.70;;;;;;;;;;5053289;28;20041;-62
2023/10/23 06:17:31;;;;;;;5.47;4.40;;;;;;;;;;5052389;28;20033;-62
2023/10/23 06:19:57;;;;;;;8.18;4.57;;;;;;;;;;5052804;28;20460;-62
2023/10/23 06:22:23;;;;;;;8.27;5.85;;;;;;;;;;5053140;28;20514;-62
2023/10/23 06:24:49;;;;;;;7.47;5.57;;;;;;;;;;5051557;28;20089;-62
2023/10/23 06:27:15;;;;;;;5.97;5.38;;;;;;;;;;5032148;28;20068;-62
2023/10/23 06:29:41;;;;;;;8.13;5.60;;;;;;;;;;5052660;28;20041;-62
2023/10/23 06:32:07;;;;;;;6.88;5.30;;;;;;;;;;5052285;28;20049;-62
2023/10/23 06:34:33;;;;;;;7.18;5.20;;;;;;;;;;5052795;28;20040;-62
2023/10/23 06:37:00;;;;;;;6.13;5.47;;;;;;;;;;5052029;28;20048;-63
2023/10/23 06:39:26;;;;;;;5.63;5.00;;;;;;;;;;5052199;28;20045;-63
2023/10/23 06:41:52;;;;;;;7.88;5.10;;;;;;;;;;5050970;28;20052;-65
2023/10/23 06:44:19;;;;;;;5.65;5.07;;;;;;;;;;5051469;28;20120;-64
2023/10/23 06:46:45;;;;;;;6.47;5.22;;;;;;;;;;5051220;28;20080;-63
2023/10/23 06:49:11;;;;;;;6.95;5.20;;;;;;;;;;5051760;28;20069;-62
2023/10/23 06:51:37;;;;;;;5.13;4.63;;;;;;;;;;5052122;28;20033;-64
2023/10/23 06:54:04;;;;;;;5.82;4.82;;;;;;;;;;5050983;28;20047;-63
2023/10/23 06:56:30;;;;;;;6.13;5.20;;;;;;;;;;5046872;28;20128;-63
2023/10/23 06:58:56;;;;;;;7.05;5.55;;;;;;;;;;5038187;28;20049;-63
2023/10/23 07:01:22;;;;;;;5.43;4.93;;;;;;;;;;5039102;28;20036;-64
2023/10/23 07:03:48;;;;;;;4.88;4.40;;;;;;;;;;5038314;28;20497;-63
2023/10/23 07:06:14;;;;;;;6.78;5.53;;;;;;;;;;5050842;28;20052;-63
2023/10/23 07:08:41;;;;;;;5.93;5.32;;;;;;;;;;5041534;28;20037;-64
2023/10/23 07:11:13;;;;;;;5.63;4.90;;;;;;;;;;5048367;28;20037;-63
2023/10/23 07:13:39;;;;;;;5.82;5.20;;;;;;;;;;5047370;28;20036;-63
2023/10/23 07:16:05;;;;;;;7.72;5.22;;;;;;;;;;5049595;28;20041;-61
2023/10/23 07:18:32;;;;;;;5.63;4.97;;;;;;;;;;5049030;28;20041;-61
2023/10/23 07:21:02;;;;;;;6.45;5.75;;;;;;;;;;5047002;28;20191;-62
2023/10/23 07:23:31;;;;;;;6.72;5.00;;;;;;;;;;5041199;28;20480;-62
2023/10/23 07:26:07;;;;;;;6.93;5.38;;;;;;;;;;5027634;28;20052;-64
2023/10/23 07:28:33;;;;;;;6.00;5.07;;;;;;;;;;5040434;28;20049;-62
2023/10/23 07:31:02;;;;;;;5.65;4.70;;;;;;;;;;5046851;28;20036;-62
2023/10/23 07:33:28;;;;;;;5.80;5.20;;;;;;;;;;5047318;28;20364;-63
2023/10/23 07:36:07;;;;;;;8.95;6.60;;;;;;;;;;5046855;28;20041;-64
2023/10/23 07:38:34;;;;;;;7.50;6.68;;;;;;;;;;5047674;28;20488;-63
2023/10/23 07:41:00;;;;;;;10.40;7.80;;;;;;;;;;5043588;28;20069;-62
2023/10/23 07:43:27;;;;;;;10.75;7.72;;;;;;;;;;5013367;28;20041;-62
2023/10/23 07:45:54;;;;;;;9.93;8.18;;;;;;;;;;5049102;28;20033;-62
2023/10/23 07:48:21;;;;;;;10.40;8.88;;;;;;;;;;5043629;28;20033;-62
2023/10/23 07:50:47;;;;;;;10.40;8.20;;;;;;;;;;5045208;28;20119;-62
2023/10/23 07:53:13;;;;;;;11.27;8.90;;;;;;;;;;5024926;28;20076;-61
2023/10/23 07:55:39;;;;;;;12.48;8.90;;;;;;;;;;5028076;28;20489;-62
2023/10/23 07:58:05;;;;;;;10.18;8.50;;;;;;;;;;5021760;28;20045;-62
2023/10/23 08:00:31;;;;;;;14.13;8.50;;;;;;;;;;5028776;28;20491;-62
2023/10/23 08:02:57;;;;;;;15.15;10.05;;;;;;;;;;5019108;28;20057;-62
2023/10/23 08:05:23;;;;;;;13.60;11.35;;;;;;;;;;5022834;28;20034;-62
2023/10/23 08:07:49;;;;;;;14.35;10.88;;;;;;;;;;5014261;28;20069;-62
2023/10/23 08:10:15;;;;;;;12.95;10.93;;;;;;;;;;5024357;28;20034;-63
2023/10/23 08:12:42;;;;;;;15.05;10.93;;;;;;;;;;5028988;28;20034;-63
2023/10/23 08:15:08;;;;;;;13.45;10.52;;;;;;;;;;5024359;28;20041;-62
2023/10/23 08:17:34;;;;;;;13.85;10.38;;;;;;;;;;5028006;28;20116;-62
2023/10/23 08:20:00;;;;;;;16.23;10.85;;;;;;;;;;5024099;28;20095;-62
2023/10/23 08:22:26;;;;;;;15.23;11.63;;;;;;;;;;5028087;28;20631;-62
2023/10/23 08:24:52;;;;;;;13.35;11.13;;;;;;;;;;5019488;28;20356;-62
2023/10/23 08:27:18;;;;;;;15.88;11.50;;;;;;;;;;5028410;28;20072;-63
2023/10/23 08:29:44;;;;;;;14.50;11.63;;;;;;;;;;5023951;28;20782;-63
2023/10/23 08:32:12;;;;;;;28.90;12.23;;;;;;;;;;5028778;28;20125;-63
2023/10/23 08:34:38;;;;;;;13.07;10.60;;;;;;;;;;5023172;28;20067;-64
2023/10/23 08:37:04;;;;;;;15.68;11.05;;;;;;;;;;5024281;28;20148;-63
2023/10/23 08:39:30;;;;;;;12.52;10.73;;;;;;;;;;5028332;28;20044;-65
2023/10/23 08:41:57;;;;;;;18.10;11.90;;;;;;;;;;5027902;28;20063;-62
2023/10/23 08:44:23;;;;;;;26.67;11.10;;;;;;;;;;5029287;28;20065;-63
2023/10/23 08:46:50;;;;;;;17.63;11.32;;;;;;;;;;5028230;28;20128;-64
2023/10/23 08:49:16;;;;;;;33.70;11.55;;;;;;;;;;5029636;28;20041;-63
2023/10/23 08:51:42;;;;;;;25.13;11.93;;;;;;;;;;5028014;28;20033;-63
2023/10/23 08:54:12;;;;;;;26.45;12.40;;;;;;;;;;5038756;28;20053;-62
2023/10/23 08:56:39;;;;;;;24.23;12.88;;;;;;;;;;5039524;28;20060;-63
2023/10/23 08:59:06;;;;;;;28.88;12.35;;;;;;;;;;5037628;28;20137;-62
2023/10/23 09:01:36;;;;;;;26.50;12.73;;;;;;;;;;5044792;28;20052;-63
2023/10/23 09:04:03;;;;;;;15.95;12.05;;;;;;;;;;5037006;28;20068;-62
2023/10/23 09:06:30;;;;;;;16.42;12.05;;;;;;;;;;5043836;28;20048;-64
2023/10/23 09:08:56;;;;;;;30.58;12.63;;;;;;;;;;5048133;28;20072;-63
2023/10/23 09:11:36;;;;;;;17.10;12.57;;;;;;;;;;5046526;28;20040;-62
2023/10/23 09:14:02;;;;;;;16.17;11.75;;;;;;;;;;5046251;28;20516;-63
2023/10/23 09:16:28;;;;;;;16.58;12.85;;;;;;;;;;5047266;28;20056;-63
2023/10/23 09:18:55;;;;;;;17.70;12.82;;;;;;;;;;5048121;28;20048;-64
2023/10/23 09:21:21;;;;;;;16.13;12.75;;;;;;;;;;5043844;28;20045;-62
2023/10/23 09:23:54;;;;;;;19.77;14.32;;;;;;;;;;5043768;28;20694;-62
2023/10/23 09:26:20;;;;;;;18.08;13.60;;;;;;;;;;5038466;28;20033;-63
2023/10/23 09:28:49;;;;;;;18.85;14.18;;;;;;;;;;5038574;28;20124;-62
2023/10/23 09:31:15;;;;;;;18.95;13.70;;;;;;;;;;5037741;28;20047;-63
2023/10/23 09:33:42;;;;;;;18.35;14.35;;;;;;;;;;5045978;28;20041;-63
2023/10/23 09:36:10;;;;;;;23.45;14.82;;;;;;;;;;5046026;28;20041;-63
2023/10/23 09:38:36;;;;;;;19.52;14.13;;;;;;;;;;5046589;28;20487;-63
2023/10/23 09:41:02;;;;;;;19.42;13.80;;;;;;;;;;5043266;28;20057;-63
2023/10/23 09:43:28;;;;;;;20.10;14.35;;;;;;;;;;5048324;28;20045;-63
2023/10/23 09:45:56;;;;;;;22.20;15.32;;;;;;;;;;5051148;28;20041;-63
2023/10/23 09:48:23;;;;;;;23.05;16.20;;;;;;;;;;5045646;28;20059;-63
2023/10/23 09:50:49;;;;;;;19.45;14.70;;;;;;;;;;5051148;28;20063;-63
2023/10/23 09:53:19;;;;;;;22.48;15.90;;;;;;;;;;5048380;28;20063;-63
2023/10/23 09:55:45;;;;;;;24.67;15.45;;;;;;;;;;5047613;28;20496;-63
2023/10/23 09:58:16;;;;;;;20.83;15.45;;;;;;;;;;5050953;28;20041;-63
2023/10/23 10:00:46;;;;;;;22.38;16.83;;;;;;;;;;5047447;28;20507;-63
2023/10/23 10:03:13;;;;;;;21.73;15.85;;;;;;;;;;5047821;28;20049;-65
2023/10/23 10:05:42;;;;;;;23.08;16.17;;;;;;;;;;5045654;28;20134;-64
2023/10/23 10:08:12;;;;;;;23.13;16.05;;;;;;;;;;5046786;28;20072;-64
2023/10/23 10:10:38;;;;;;;22.58;15.27;;;;;;;;;;5042949;28;20045;-64
2023/10/23 10:13:05;;;;;;;21.67;15.65;;;;;;;;;;5044712;28;20052;-65
2023/10/23 10:15:32;;;;;;;22.80;16.20;;;;;;;;;;5043707;28;20033;-64
2023/10/23 10:17:58;;;;;;;21.77;15.73;;;;;;;;;;5049466;28;20041;-63
2023/10/23 10:20:25;;;;;;;22.27;16.38;;;;;;;;;;5031057;28;20036;-64
2023/10/23 10:22:54;;;;;;;25.92;17.20;;;;;;;;;;5030890;28;20044;-64
2023/10/23 10:25:20;;;;;;;25.50;17.50;;;;;;;;;;5042783;28;20048;-64
2023/10/23 10:27:55;;;;;;;27.77;18.02;;;;;;;;;;5049572;28;20439;-65
2023/10/23 10:30:37;;;;;;;27.92;17.63;;;;;;;;;;5047433;28;20471;-66
2023/10/23 10:33:03;;;;;;;28.90;17.60;;;;;;;;;;5048704;28;20037;-65
2023/10/23 10:35:32;;;;;;;25.33;17.50;;;;;;;;;;5048076;28;20041;-64
2023/10/23 10:38:00;;;;;;;26.05;18.42;;;;;;;;;;5045909;28;20132;-66
2023/10/23 10:40:26;;;;;;;30.85;17.50;;;;;;;;;;5050885;28;20041;-66
2023/10/23 10:42:55;;;;;;;29.88;18.50;;;;;;;;;;5049907;28;20069;-66
2023/10/23 10:45:21;;;;;;;29.50;18.48;;;;;;;;;;5050342;28;20044;-66
2023/10/23 10:47:49;;;;;;;28.73;18.27;;;;;;;;;;5050081;28;20037;-66
2023/10/23 10:50:33;;;;;;;29.77;18.70;;;;;;;;;;5047689;28;20036;-66
2023/10/23 10:53:02;;;;;;;31.27;19.38;;;;;;;;;;5004896;28;20075;-66
2023/10/23 10:55:28;;;;;;;33.05;21.65;;;;;;;;;;5050158;28;20134;-66
2023/10/23 10:57:54;;;;;;;35.58;23.13;;;;;;;;;;5049490;28;20484;-66
2023/10/23 11:00:22;;;;;;;33.95;21.98;;;;;;;;;;5050359;28;20071;-66
2023/10/23 11:02:49;;;;;;;43.72;23.42;;;;;;;;;;5048548;28;20045;-66
2023/10/23 11:05:15;;;;;;;36.33;22.52;;;;;;;;;;5036767;28;20081;-66
2023/10/23 11:07:41;;;;;;;44.47;23.40;;;;;;;;;;5033035;28;20047;-66
2023/10/23 11:10:09;;;;;;;42.20;22.73;;;;;;;;;;5042476;28;20045;-66
2023/10/23 11:12:35;;;;;;;41.67;21.85;;;;;;;;;;5050775;28;20033;-66
2023/10/23 11:15:04;;;;;;;40.70;22.42;;;;;;;;;;5045494;28;20036;-64
2023/10/23 11:17:30;;;;;;;44.13;22.38;;;;;;;;;;5045857;28;20045;-63
2023/10/23 11:19:56;;;;;;;44.78;23.48;;;;;;;;;;5043648;28;20081;-64
2023/10/23 11:22:23;;;;;;;43.25;23.92;;;;;;;;;;5043746;28;20480;-64
2023/10/23 11:24:49;;;;;;;41.95;23.17;;;;;;;;;;5048546;28;20086;-64
2023/10/23 11:27:16;;;;;;;39.25;22.38;;;;;;;;;;5048619;28;20037;-64
2023/10/23 11:29:43;;;;;;;40.83;22.77;;;;;;;;;;5047362;28;20387;-64
2023/10/23 11:32:11;;;;;;;42.80;23.70;;;;;;;;;;5047774;28;20036;-64
2023/10/23 11:34:37;;;;;;;41.78;23.83;;;;;;;;;;5048395;28;20452;-63
2023/10/23 11:37:07;;;;;;;43.75;23.63;;;;;;;;;;5040534;28;20051;-64
2023/10/23 11:39:35;;;;;;;43.80;25.10;;;;;;;;;;5043146;28;20049;-64
2023/10/23 11:42:02;;;;;;;43.92;24.83;;;;;;;;;;5048564;28;20120;-64
2023/10/23 11:44:29;;;;;;;42.03;24.40;;;;;;;;;;5045265;28;20041;-64
2023/10/23 11:46:55;;;;;;;46.13;25.35;;;;;;;;;;5048336;28;20052;-64
2023/10/23 11:49:25;;;;;;;45.13;25.13;;;;;;;;;;5049107;28;20052;-65
2023/10/23 11:51:51;;;;;;;47.65;24.90;;;;;;;;;;5046487;28;20052;-65
2023/10/23 11:54:18;;;;;;;39.55;22.73;;;;;;;;;;5033367;28;20088;-64
2023/10/23 11:56:44;;;;;;;40.90;23.58;;;;;;;;;;5047403;28;20133;-64
2023/10/23 11:59:20;;;;;;;40.28;23.25;;;;;;;;;;5046618;28;20037;-64
2023/10/23 12:01:47;;;;;;;37.85;22.48;;;;;;;;;;5047806;28;20442;-64
2023/10/23 12:04:13;;;;;;;38.33;21.83;;;;;;;;;;5046015;28;20036;-64
2023/10/23 12:06:39;;;;;;;35.58;21.08;;;;;;;;;;5034462;28;20048;-68
2023/10/23 12:09:06;;;;;;;35.55;20.10;;;;;;;;;;5026253;28;20427;-67
2023/10/23 12:11:33;;;;;;;33.42;20.67;;;;;;;;;;5038297;28;20075;-64
2023/10/23 12:14:01;;;;;;;34.60;20.38;;;;;;;;;;5035796;28;20466;-65
2023/10/23 12:16:28;;;;;;;36.83;21.98;;;;;;;;;;5039441;28;20123;-65
2023/10/23 12:18:54;;;;;;;38.65;21.92;;;;;;;;;;5036613;28;20060;-65
2023/10/23 12:21:20;;;;;;;37.28;21.17;;;;;;;;;;5037211;28;20040;-65
2023/10/23 12:23:46;;;;;;;34.85;22.05;;;;;;;;;;5038531;28;20044;-63
2023/10/23 12:26:12;;;;;;;33.67;20.27;;;;;;;;;;5046851;28;20119;-63
2023/10/23 12:28:39;;;;;;;35.03;21.23;;;;;;;;;;5045908;28;20045;-64
2023/10/23 12:31:05;;;;;;;36.03;21.67;;;;;;;;;;5049012;28;20071;-64
2023/10/23 12:33:32;;;;;;;35.97;21.08;;;;;;;;;;5049304;28;20652;-64
2023/10/23 12:36:00;;;;;;;35.58;20.85;;;;;;;;;;5048839;28;20080;-65
2023/10/23 12:38:28;;;;;;;37.35;21.02;;;;;;;;;;5046081;28;20051;-64
2023/10/23 12:40:54;;;;;;;37.10;21.42;;;;;;;;;;5044849;28;20060;-63
2023/10/23 12:43:20;;;;;;;32.85;20.27;;;;;;;;;;5024848;28;20427;-63
2023/10/23 12:45:46;;;;;;;32.38;20.63;;;;;;;;;;5045332;28;20044;-62
2023/10/23 12:48:12;;;;;;;34.80;21.85;;;;;;;;;;5048772;28;20091;-63
2023/10/23 12:50:39;;;;;;;39.92;22.35;;;;;;;;;;5046024;28;20041;-62
2023/10/23 12:53:05;;;;;;;35.90;22.10;;;;;;;;;;5048535;28;20548;-63
2023/10/23 12:55:31;;;;;;;33.58;20.70;;;;;;;;;;5030484;28;20060;-63
2023/10/23 12:57:57;;;;;;;33.08;20.70;;;;;;;;;;5031568;28;20045;-63
2023/10/23 13:00:24;;;;;;;34.53;21.83;;;;;;;;;;5046447;28;20064;-63
2023/10/23 13:02:50;;;;;;;35.30;21.15;;;;;;;;;;5048106;28;20094;-63
2023/10/23 13:05:16;;;;;;;33.80;20.98;;;;;;;;;;5048697;28;20041;-63
2023/10/23 13:07:43;;;;;;;32.13;20.48;;;;;;;;;;5050645;28;20388;-64
2023/10/23 13:10:09;;;;;;;36.38;22.23;;;;;;;;;;5050623;28;20068;-64
2023/10/23 13:12:35;;;;;;;31.13;20.13;;;;;;;;;;5052078;28;20044;-63
2023/10/23 13:15:01;;;;;;;32.70;20.77;;;;;;;;;;5049957;28;20467;-62
2023/10/23 13:17:27;;;;;;;32.47;20.67;;;;;;;;;;5050922;28;20040;-63
2023/10/23 13:19:54;;;;;;;33.67;21.95;;;;;;;;;;5051033;28;20045;-63
2023/10/23 13:22:20;;;;;;;34.20;21.48;;;;;;;;;;5050801;28;20044;-63
2023/10/23 13:24:46;;;;;;;35.47;21.90;;;;;;;;;;5050389;28;20599;-63
2023/10/23 13:27:15;;;;;;;36.13;22.10;;;;;;;;;;5029358;28;20043;-63
2023/10/23 13:29:41;;;;;;;32.45;21.10;;;;;;;;;;5052848;28;20101;-63
2023/10/23 13:32:07;;;;;;;29.58;21.35;;;;;;;;;;5052667;28;20037;-63
2023/10/23 13:34:33;;;;;;;35.20;21.88;;;;;;;;;;5047575;28;20037;-63
2023/10/23 13:36:59;;;;;;;34.83;21.50;;;;;;;;;;5052111;28;20040;-62
2023/10/23 13:39:25;;;;;;;36.28;22.77;;;;;;;;;;5051997;28;20083;-63
2023/10/23 13:41:53;;;;;;;33.42;21.20;;;;;;;;;;5052373;28;20060;-63
2023/10/23 13:44:19;;;;;;;32.88;21.38;;;;;;;;;;5052019;28;20041;-63
2023/10/23 13:46:45;;;;;;;34.58;21.52;;;;;;;;;;5051997;28;20123;-63
2023/10/23 13:49:12;;;;;;;39.00;23.23;;;;;;;;;;5051327;28;20037;-63
2023/10/23 13:51:38;;;;;;;36.78;22.80;;;;;;;;;;5052131;28;20044;-64
2023/10/23 13:54:04;;;;;;;34.30;22.30;;;;;;;;;;5050882;28;20081;-64
2023/10/23 13:56:30;;;;;;;35.55;22.85;;;;;;;;;;5047754;28;20072;-64
2023/10/23 13:58:56;;;;;;;33.67;22.30;;;;;;;;;;5037819;28;20056;-64
2023/10/23 14:01:23;;;;;;;39.15;24.10;;;;;;;;;;5034651;28;20045;-63
2023/10/23 14:03:49;;;;;;;34.85;23.30;;;;;;;;;;5052247;28;20052;-62
2023/10/23 14:06:16;;;;;;;31.13;21.17;;;;;;;;;;5034214;28;20128;-64
2023/10/23 14:08:42;;;;;;;36.72;21.83;;;;;;;;;;5051955;28;20044;-62
2023/10/23 14:11:09;;;;;;;30.95;22.13;;;;;;;;;;5051697;28;20058;-63
2023/10/23 14:13:35;;;;;;;29.52;20.95;;;;;;;;;;5052500;28;20431;-63
2023/10/23 14:16:04;;;;;;;32.42;20.70;;;;;;;;;;5051684;28;20041;-62
2023/10/23 14:18:30;;;;;;;31.70;21.90;;;;;;;;;;5051114;28;20045;-62
2023/10/23 14:20:56;;;;;;;31.65;21.23;;;;;;;;;;5052118;28;20689;-62
2023/10/23 14:23:23;;;;;;;33.35;20.55;;;;;;;;;;5052324;28;20044;-63
2023/10/23 14:25:49;;;;;;;29.63;20.48;;;;;;;;;;5051834;28;20048;-63
2023/10/23 14:28:15;;;;;;;34.85;21.85;;;;;;;;;;5052133;28;20041;-63